Latest Weather Observations for Mallacoota

IDV60801

Issued at 3:31 pm EST Saturday 5 September 2015 (issued every 30 minutes, with the page automatically refreshed every 10 minutes)

About weather observations | Map of weather stations | Latest weather observations for VIC | Other Formats
Station Details ID: 084084 Name: MALLACOOTA Lat: -37.60 Lon: 149.73 Height: 22.0 m
Data from the previous 72 hours. | See also: Recent months at Mallacoota
Date/Time
EST
Temp
°C
App
Temp
°C
Dew
Point
Rel
Hum
%
Delta-T
°C
Wind Press
QNH
hPa
Press
MSL
hPa
Rain
since 9 am
mm
Dir
 
Spd
km/h
Gust
km/h
Spd
kts
Gust
kts
05/03:30pm 13.9 9.9 5.0 55 4.1 WSW 15 24 8 13 1021.5 - 0.0
05/03:00pm 14.1 9.1 3.8 50 4.7 WSW 19 35 10 19 1021.5 1021.6 0.0
05/02:30pm 14.3 9.5 4.9 53 4.4 WSW 19 28 10 15 1021.3 - 0.0
05/02:00pm 14.5 9.7 4.5 51 4.6 W 19 32 10 17 1021.2 - 0.0
05/01:30pm 14.2 10.1 6.1 58 3.9 WSW 17 35 9 19 1021.3 - 0.0
05/01:00pm 14.8 9.2 5.3 53 4.5 SW 24 39 13 21 1021.5 - 0.0
05/12:30pm 14.6 10.1 5.9 56 4.2 WSW 19 35 10 19 1021.8 - 0.0
05/12:00pm 14.1 9.3 5.5 56 4.0 W 20 35 11 19 1022.1 1022.2 0.0
05/11:30am 14.1 8.9 5.7 57 4.0 WSW 22 37 12 20 1022.4 - 0.0
05/11:00am 13.9 8.8 5.8 58 3.8 WSW 22 37 12 20 1022.6 - 0.0
05/10:30am 14.4 9.9 6.3 58 3.9 WSW 19 33 10 18 1022.6 - 0.0
05/10:00am 13.6 9.1 6.2 61 3.5 W 19 33 10 18 1022.5 - 0.0
05/09:30am 12.9 8.1 5.8 62 3.3 WSW 20 33 11 18 1022.8 - 0.0
05/09:00am 12.7 7.9 5.8 63 3.2 W 20 35 11 19 1022.6 1022.7 0.0
05/08:30am 11.6 6.9 5.3 65 2.9 W 19 30 10 16 1022.7 - 0.0
05/08:00am 11.1 6.7 5.0 66 2.8 W 17 30 9 16 1022.2 - 0.0
05/07:30am 10.8 6.4 4.5 65 2.8 W 17 26 9 14 1022.1 - 0.0
05/07:00am 10.6 6.1 4.3 65 2.8 W 17 33 9 18 1021.7 - 0.0
05/06:30am 10.2 6.1 4.6 68 2.5 WNW 15 24 8 13 1021.4 - 0.0
05/06:00am 9.9 5.8 4.3 68 2.5 NW 15 24 8 13 1021.4 1021.5 0.0
05/05:30am 9.9 6.2 4.3 68 2.5 WNW 13 24 7 13 1021.4 - 0.0
05/05:00am 9.7 6.4 4.3 69 2.4 W 11 19 6 10 1021.3 - 0.0
05/04:30am 9.7 6.7 4.1 68 2.5 WNW 9 17 5 9 1021.2 - 0.0
05/04:00am 9.8 6.8 4.2 68 2.5 W 9 15 5 8 1021.2 - 0.0
05/03:30am 9.8 6.4 4.2 68 2.5 W 11 20 6 11 1021.1 - 0.0
05/03:00am 9.7 6.3 3.9 67 2.5 W 11 24 6 13 1021.2 1021.2 0.0
05/02:30am 9.6 5.4 3.8 67 2.5 W 15 30 8 16 1021.3 - 0.0
05/02:00am 9.4 4.8 3.8 68 2.4 WSW 17 28 9 15 1021.5 - 0.0
05/01:30am 9.4 4.9 4.0 69 2.4 WSW 17 28 9 15 1021.8 - 0.0
05/01:00am 9.4 5.7 4.2 70 2.3 W 13 24 7 13 1022.0 - 0.0
05/12:30am 9.5 5.8 4.7 72 2.1 W 13 20 7 11 1022.3 - 0.0
05/12:00am 9.7 6.1 4.9 72 2.1 W 13 24 7 13 1022.5 1022.6 0.0
 
Date/Time
EST
Temp
°C
App
Temp
°C
Dew
Point
Rel
Hum
%
Delta-T
°C
Wind Press
QNH
hPa
Press
MSL
hPa
Rain
since 9 am
mm
Dir
 
Spd
km/h
Gust
km/h
Spd
kts
Gust
kts
04/11:30pm 10.1 6.6 5.5 73 2.1 W 13 28 7 15 1022.6 - 0.0
04/11:00pm 10.0 6.5 5.6 74 2.0 WNW 13 22 7 12 1022.7 - 0.0
04/10:30pm 9.9 6.8 5.5 74 2.0 WNW 11 17 6 9 1022.7 - 0.0
04/10:00pm 9.7 6.5 5.3 74 2.0 WNW 11 17 6 9 1022.7 - 0.0
04/09:30pm 9.4 6.1 4.8 73 2.1 WNW 11 17 6 9 1022.7 - 0.0
04/09:00pm 9.1 5.4 4.7 74 1.9 WNW 13 20 7 11 1022.7 1022.8 0.0
04/08:30pm 8.6 5.3 4.4 75 1.8 WNW 11 17 6 9 1022.7 - 0.0
04/08:00pm 8.6 4.9 4.6 76 1.8 WNW 13 20 7 11 1022.6 - 0.0
04/07:30pm 7.8 4.7 3.8 76 1.7 WNW 9 13 5 7 1022.6 - 0.0
04/07:00pm 7.9 5.2 3.6 74 1.8 NW 7 9 4 5 1022.6 - 0.0
04/06:30pm 8.6 6.0 4.0 73 2.0 W 7 13 4 7 1022.2 - 0.0
04/06:00pm 9.1 6.5 4.1 71 2.2 W 7 11 4 6 1022.1 1022.2 0.0
04/05:30pm 9.8 6.9 4.4 69 2.4 WSW 9 13 5 7 1021.7 - 0.0
04/05:00pm 10.8 7.1 4.5 65 2.8 SW 13 22 7 12 1021.5 - 0.0
04/04:30pm 11.3 6.9 4.7 64 3.0 SW 17 26 9 14 1021.5 - 0.0
04/04:00pm 11.4 6.6 4.8 64 3.0 SW 19 32 10 17 1021.5 - 0.0
04/03:30pm 12.6 8.3 5.1 60 3.5 SW 17 26 9 14 1021.3 - 0.0
04/03:00pm 13.0 8.8 5.7 61 3.4 SW 17 26 9 14 1021.3 1021.4 0.0
04/02:30pm 13.0 8.4 5.4 60 3.5 WSW 19 35 10 19 1021.5 - 0.0
04/02:00pm 13.2 8.4 5.4 59 3.6 WSW 20 32 11 17 1021.6 - 0.0
04/01:30pm 13.1 8.6 6.2 63 3.3 WSW 19 28 10 15 1021.7 - 0.0
04/01:00pm 13.6 8.9 6.2 61 3.5 WSW 20 33 11 18 1021.7 - 0.0
04/12:30pm 13.6 9.2 6.7 63 3.3 SW 19 26 10 14 1021.9 - 0.0
04/12:00pm 13.5 9.1 6.6 63 3.3 WSW 19 32 10 17 1022.3 1022.4 0.0
04/11:30am 12.3 7.3 6.4 67 2.8 WSW 22 35 12 19 1022.6 - 0.0
04/11:00am 12.1 8.6 7.2 72 2.4 W 15 30 8 16 1023.0 - 0.0
04/10:30am 10.6 7.0 6.9 78 1.8 W 15 26 8 14 1023.3 - 0.0
04/10:00am 10.6 7.2 7.5 81 1.5 W 15 28 8 15 1023.5 - 0.0
04/09:30am 9.8 6.3 7.2 84 1.2 W 15 26 8 14 1023.5 - 0.0
04/09:00am 10.6 7.2 7.5 81 1.5 W 15 24 8 13 1023.5 1023.6 0.6
04/08:30am 10.9 8.0 8.1 83 1.4 W 13 24 7 13 1023.3 - 0.6
04/08:00am 10.8 7.9 8.2 84 1.3 W 13 20 7 11 1023.2 - 0.6
04/07:30am 10.3 8.2 8.1 86 1.1 W 9 13 5 7 1022.9 - 0.6
04/07:00am 9.7 7.4 7.3 85 1.1 WNW 9 15 5 8 1022.2 - 0.6
04/06:30am 9.4 7.0 6.8 84 1.2 WNW 9 13 5 7 1021.9 - 0.6
04/06:00am 9.1 6.9 6.0 81 1.4 WNW 7 11 4 6 1021.5 1021.6 0.6
04/05:30am 9.5 7.2 5.7 77 1.7 W 7 13 4 7 1021.2 - 0.6
04/05:00am 10.2 7.9 5.8 74 2.0 WSW 7 9 4 5 1021.0 - 0.6
04/04:30am 10.6 8.3 5.6 71 2.3 W 7 9 4 5 1020.9 - 0.6
04/04:00am 12.2 8.3 5.4 63 3.2 S 15 20 8 11 1020.5 - 0.6
04/03:30am 12.3 9.0 6.4 67 2.8 S 13 24 7 13 1020.5 - 0.6
04/03:00am 12.4 9.5 6.5 67 2.8 SSW 11 19 6 10 1020.3 1020.3 0.6
04/02:30am 12.7 8.2 6.1 64 3.1 S 19 24 10 13 1020.2 - 0.6
04/02:00am 12.8 9.6 7.0 68 2.8 S 13 20 7 11 1020.2 - 0.6
04/01:30am 12.8 9.9 6.6 66 3.0 S 11 24 6 13 1020.1 - 0.6
04/01:00am 12.7 10.7 7.0 68 2.7 SSW 7 15 4 8 1020.0 - 0.6
04/12:30am 12.8 9.7 7.3 69 2.7 SSW 13 24 7 13 1019.9 - 0.6
04/12:00am 13.0 8.7 7.0 67 2.9 S 19 30 10 16 1019.6 1019.6 0.6
 
Date/Time
EST
Temp
°C
App
Temp
°C
Dew
Point
Rel
Hum
%
Delta-T
°C
Wind Press
QNH
hPa
Press
MSL
hPa
Rain
since 9 am
mm
Dir
 
Spd
km/h
Gust
km/h
Spd
kts
Gust
kts
03/11:30pm 13.1 9.0 8.0 71 2.5 S 19 33 10 18 1019.0 - 0.6
03/11:00pm 13.3 9.1 8.4 72 2.4 S 20 32 11 17 1018.7 - 0.6
03/10:30pm 13.3 8.9 8.8 74 2.3 S 22 37 12 20 1018.7 - 0.6
03/10:00pm 13.5 8.0 9.2 75 2.2 S 28 39 15 21 1018.5 - 0.6
03/09:30pm 13.5 7.1 9.4 76 2.1 S 33 44 18 24 1018.3 - 0.6
03/09:00pm 13.7 7.7 10.1 79 1.9 S 32 41 17 22 1017.9 1017.9 0.6
03/08:30pm 13.8 7.8 10.0 78 2.0 S 32 43 17 23 1017.3 - 0.6
03/08:00pm 13.8 7.7 10.4 80 1.8 S 33 41 18 22 1016.8 - 0.6
03/07:30pm 13.9 7.8 10.3 79 1.9 S 33 43 18 23 1016.4 - 0.6
03/07:00pm 14.0 8.0 10.0 77 2.1 S 32 43 17 23 1015.9 - 0.6
03/06:30pm 14.1 7.6 10.3 78 2.0 S 35 48 19 26 1015.1 - 0.6
03/06:00pm 14.1 7.4 10.9 81 1.7 S 37 48 20 26 1014.2 1014.2 0.6
03/05:30pm 13.9 6.9 11.1 83 1.5 S 39 57 21 31 1013.3 - 0.6
03/05:21pm 14.0 7.7 11.0 82 1.6 S 35 54 19 29 1013.1 - 0.6
03/05:00pm 14.3 8.7 11.5 83 1.5 S 32 44 17 24 1012.4 - 0.6
03/04:30pm 14.2 9.5 11.9 86 1.2 S 28 46 15 25 1011.8 - 0.6
03/04:24pm 14.2 9.5 12.1 87 1.1 S 28 46 15 25 1011.7 - 0.6
03/04:00pm 14.2 9.6 12.4 89 1.0 S 28 41 15 22 1011.1 - 0.6
03/03:30pm 14.0 10.4 12.0 88 1.1 SSW 22 33 12 18 1010.5 - 0.6
03/03:00pm 14.1 9.5 11.1 82 1.6 SSW 26 39 14 21 1010.1 1010.1 0.4
03/02:30pm 15.9 12.0 12.1 78 2.1 SSW 24 39 13 21 1009.0 - 0.4
03/02:00pm 16.6 14.0 11.9 74 2.6 SW 17 28 9 15 1008.2 - 0.4
03/01:30pm 15.3 13.4 11.7 79 1.9 WSW 13 19 7 10 1008.0 - 0.4
03/01:00pm 14.2 12.2 11.4 83 1.5 WSW 13 20 7 11 1007.8 - 0.4
03/12:30pm 13.5 11.8 11.2 86 1.2 W 11 17 6 9 1007.7 - 0.4
03/12:00pm 12.6 10.4 10.7 88 1.0 WNW 13 20 7 11 1007.7 1007.7 0.4
03/11:30am 11.7 10.0 9.9 89 0.9 NW 9 17 5 9 1008.0 - 0.4
03/11:00am 11.1 9.3 9.4 89 0.9 WNW 9 15 5 8 1007.9 - 0.4
03/10:30am 11.3 9.9 9.6 89 0.9 NW 7 13 4 7 1007.9 - 0.4
03/10:00am 11.2 9.7 9.3 88 1.0 NW 7 13 4 7 1007.9 - 0.4
03/09:30am 11.0 9.1 8.9 87 1.0 NW 9 11 5 6 1008.0 - 0.2
03/09:00am 11.0 9.3 8.4 84 1.3 NW 7 13 4 7 1007.5 1007.5 0.4
03/08:30am 11.2 9.5 8.2 82 1.5 WSW 7 13 4 7 1007.1 - 0.4
03/08:00am 11.0 8.8 7.7 80 1.6 WSW 9 13 5 7 1006.6 - 0.4
03/07:30am 10.8 8.6 7.7 81 1.5 W 9 13 5 7 1006.2 - 0.4
03/07:00am 10.0 7.3 7.3 83 1.3 WNW 11 15 6 8 1006.0 - 0.4
03/06:30am 9.8 7.8 7.1 83 1.3 WNW 7 11 4 6 1005.1 - 0.4
03/06:00am 10.1 7.7 7.2 82 1.4 NW 9 13 5 7 1004.8 1004.8 0.4
03/05:30am 10.2 8.2 7.3 82 1.4 NW 7 9 4 5 1004.7 - 0.4
03/05:00am 10.0 8.1 6.9 81 1.5 N 6 7 3 4 1004.8 - 0.4
03/04:30am 10.7 8.8 6.6 76 1.9 SSW 6 7 3 4 1004.7 - 0.4
03/04:00am 11.4 9.5 6.9 74 2.1 W 6 9 3 5 1004.7 - 0.4
03/03:30am 12.1 9.4 7.2 72 2.4 WNW 11 15 6 8 1004.6 - 0.4
03/03:00am 12.5 9.6 8.0 74 2.2 NNW 13 17 7 9 1004.9 1004.9 0.4
03/02:30am 11.6 8.8 8.6 82 1.5 N 13 19 7 10 1005.3 - 0.4
03/02:00am 10.8 9.1 8.2 84 1.3 N 7 11 4 6 1005.6 - 0.4
03/01:30am 10.8 9.6 8.0 83 1.4 NW 4 11 2 6 1006.2 - 0.4
03/01:00am 11.3 9.3 8.7 84 1.3 NW 9 13 5 7 1006.3 - 0.4
03/12:30am 11.3 9.7 8.9 85 1.2 NNW 7 11 4 6 1006.5 - 0.4
03/12:00am 11.1 9.1 8.8 86 1.1 NNW 9 15 5 8 1006.9 1006.9 0.4
 
Date/Time
EST
Temp
°C
App
Temp
°C
Dew
Point
Rel
Hum
%
Delta-T
°C
Wind Press
QNH
hPa
Press
MSL
hPa
Rain
since 9 am
mm
Dir
 
Spd
km/h
Gust
km/h
Spd
kts
Gust
kts
02/11:30pm 10.4 8.7 8.2 86 1.1 NW 7 9 4 5 1007.1 - 0.4
02/11:00pm 10.5 8.4 8.1 85 1.2 NW 9 13 5 7 1007.4 - 0.4
02/10:30pm 11.4 9.5 9.0 85 1.2 NW 9 13 5 7 1008.0 - 0.4
02/10:00pm 11.3 9.7 8.9 85 1.2 NW 7 11 4 6 1008.4 - 0.4
02/09:30pm 12.0 10.2 9.4 84 1.3 N 9 13 5 7 1008.6 - 0.4
02/09:00pm 12.1 10.0 9.8 86 1.2 N 11 15 6 8 1008.8 1008.8 0.4
02/08:30pm 11.5 9.3 9.4 87 1.1 N 11 15 6 8 1008.9 - 0.4
02/08:00pm 11.3 9.4 9.0 86 1.1 N 9 11 5 6 1009.1 - 0.4
02/07:30pm 10.8 9.1 8.2 84 1.3 N 7 9 4 5 1009.1 - 0.4
02/07:00pm 11.3 9.5 8.0 80 1.6 N 7 9 4 5 1009.2 - 0.4
02/06:30pm 12.3 10.2 8.4 77 1.9 N 9 19 5 10 1009.4 - 0.4
02/06:00pm 11.9 9.6 7.4 74 2.2 N 9 13 5 7 1009.4 1009.4 0.4
02/05:30pm 13.4 11.3 8.3 71 2.5 N 9 13 5 7 1009.3 - 0.0
02/05:00pm 14.9 11.4 8.8 67 3.1 NNE 17 24 9 13 1009.4 - 0.0
02/04:30pm 15.6 12.4 8.6 63 3.6 NNE 15 22 8 12 1009.7 - 0.0
02/04:00pm 16.0 11.7 8.0 59 4.0 NNE 20 26 11 14 1009.9 - 0.0

Other Formats:

Comma delimited format used in spreadsheet applications
http://www.bom.gov.au/fwo/IDV60801/IDV60801.94935.axf

JavaScript Object Notation format (JSON) in row-major order
http://www.bom.gov.au/fwo/IDV60801/IDV60801.94935.json